This is the latest recevied weather packets stored in our database for station/object DF7ER-12. If no packets are shown the sender has not sent any weather packets the latest 10 day(s).
| Time | Temp. | Humidity | Pressure | Rain* | Wind** | Luminosity | Snow |
|---|---|---|---|---|---|---|---|
| 1788431873 | 21.67° C | 87% | 1004.2 hPa | - | - | - | - |
| 1788431588 | 22.22° C | 85% | 1004.1 hPa | - | - | - | - |
| 1788431273 | 21.67° C | 85% | 1004.1 hPa | - | - | - | - |
| 1788430973 | 21.67° C | 83% | 1003.9 hPa | - | - | - | - |
| 1788430673 | 22.22° C | 81% | 1004 hPa | - | - | - | - |
| 1788430373 | 22.78° C | 80% | 1004 hPa | - | - | - | - |
| 1788430073 | 22.78° C | 79% | 1004 hPa | - | - | - | - |
| 1788429773 | 22.22° C | 81% | 1004.1 hPa | - | - | - | - |
| 1788429473 | 21.67° C | 81% | 1004.2 hPa | - | - | - | - |
| 1788429173 | 22.22° C | 79% | 1004.1 hPa | - | - | - | - |
| 1788428873 | 22.22° C | 80% | 1004.1 hPa | - | - | - | - |
| 1788428573 | 22.78° C | 79% | 1004.2 hPa | - | - | - | - |
| 1788428273 | 21.67° C | 82% | 1004.2 hPa | - | - | - | - |
| 1788427973 | 21.11° C | 83% | 1004.1 hPa | - | - | - | - |
| 1788427673 | 21.11° C | 84% | 1004.1 hPa | - | - | - | - |
| 1788427373 | 21.11° C | 83% | 1004.2 hPa | - | - | - | - |
| 1788427073 | 21.11° C | 82% | 1004.2 hPa | - | - | - | - |
| 1788426773 | 21.11° C | 82% | 1004.2 hPa | - | - | - | - |
| 1788426473 | 21.11° C | 82% | 1004.2 hPa | - | - | - | - |
| 1788426174 | 21.11° C | 82% | 1004.2 hPa | - | - | - | - |
| 1788425873 | 21.11° C | 82% | 1004.3 hPa | - | - | - | - |
| 1788425573 | 21.11° C | 83% | 1004.4 hPa | - | - | - | - |
| 1788425278 | 20.56° C | 84% | 1004.4 hPa | - | - | - | - |
| 1788424973 | 20.56° C | 84% | 1004.4 hPa | - | - | - | - |
| 1788424673 | 20.56° C | 85% | 1004.5 hPa | - | - | - | - |
* Rain since midnight (hover to see other rain measurements)
** Current wind speed in m/s (hover to see current wind gust speed)